Time;durP1;ratioP1;P1;durP2;ratioP2;P2;SDS_P1;SDS_P2;PMS_P1;PMS_P2;Temp;Humidity;BMP_temperature;BMP_pressure;BME280_temperature;BME280_humidity;BME280_pressure;Samples;Min_cycle;Max_cycle;Signal;HPM_P1;HPM_P2
2022/06/08 00:00:15;;;;;;;0.00;0.00;;;12.00;84.10;;;;;;5031183;28;20050;-71
2022/06/08 00:02:44;;;;;;;0.00;0.00;;;12.10;84.20;;;;;;5031484;28;20045;-71
2022/06/08 00:05:10;;;;;;;0.00;0.00;;;12.00;84.10;;;;;;5030124;28;20588;-71
2022/06/08 00:07:36;;;;;;;0.00;0.00;;;12.00;84.20;;;;;;5030910;28;20069;-71
2022/06/08 00:10:03;;;;;;;0.10;0.10;;;12.10;84.30;;;;;;5031306;28;20080;-71
2022/06/08 00:12:29;;;;;;;0.00;0.00;;;12.10;84.50;;;;;;5031142;28;20064;-72
2022/06/08 00:14:54;;;;;;;0.00;0.00;;;12.00;84.50;;;;;;5030963;28;20041;-71
2022/06/08 00:17:21;;;;;;;0.00;0.00;;;12.10;84.50;;;;;;5029679;28;20128;-71
2022/06/08 00:19:47;;;;;;;0.00;0.00;;;12.00;84.60;;;;;;5030945;28;20124;-71
2022/06/08 00:22:13;;;;;;;0.00;0.00;;;12.00;84.60;;;;;;5030641;28;20050;-71
2022/06/08 00:24:38;;;;;;;0.00;0.00;;;12.00;84.70;;;;;;5030028;28;20049;-71
2022/06/08 00:27:05;;;;;;;0.00;0.00;;;12.00;84.70;;;;;;5030464;28;20120;-71
2022/06/08 00:29:30;;;;;;;0.00;0.00;;;12.00;84.60;;;;;;5031188;28;20338;-70
2022/06/08 00:31:56;;;;;;;0.03;0.03;;;12.00;84.50;;;;;;5030813;28;20163;-70
2022/06/08 00:34:22;;;;;;;0.00;0.00;;;11.90;84.40;;;;;;5031136;28;20498;-71
2022/06/08 00:36:47;;;;;;;0.00;0.00;;;11.90;84.40;;;;;;5030732;28;20498;-71
2022/06/08 00:39:13;;;;;;;0.00;0.00;;;11.90;84.40;;;;;;5029746;28;20152;-71
2022/06/08 00:41:46;;;;;;;0.00;0.00;;;11.80;84.40;;;;;;5030295;28;20044;-71
2022/06/08 00:44:30;;;;;;;0.00;0.00;;;11.80;84.70;;;;;;5023662;28;20050;-71
2022/06/08 00:46:58;;;;;;;0.00;0.00;;;11.80;84.80;;;;;;5030269;28;20049;-71
2022/06/08 00:49:30;;;;;;;0.00;0.00;;;11.80;84.80;;;;;;5030387;28;20045;-71
2022/06/08 00:51:59;;;;;;;0.00;0.00;;;11.80;84.90;;;;;;5030241;28;20053;-71
2022/06/08 00:54:35;;;;;;;0.10;0.10;;;11.70;84.90;;;;;;5029101;28;20056;-71
2022/06/08 00:57:07;;;;;;;0.00;0.00;;;11.70;84.80;;;;;;5027642;28;20108;-71
2022/06/08 00:59:37;;;;;;;0.00;0.00;;;11.70;84.80;;;;;;5030609;28;20049;-71
2022/06/08 01:02:03;;;;;;;0.00;0.00;;;11.60;84.70;;;;;;5030000;28;20561;-71
2022/06/08 01:04:30;;;;;;;0.00;0.00;;;11.60;84.70;;;;;;5030395;28;20076;-71
2022/06/08 01:06:58;;;;;;;0.00;0.00;;;11.60;84.70;;;;;;5030286;28;20040;-71
2022/06/08 01:09:33;;;;;;;0.00;0.00;;;11.60;84.80;;;;;;5029769;28;20041;-71
2022/06/08 01:12:02;;;;;;;0.00;0.00;;;11.60;85.10;;;;;;5029759;28;20041;-71
2022/06/08 01:14:28;;;;;;;0.00;0.00;;;11.60;85.10;;;;;;5029893;28;20053;-71
2022/06/08 01:17:02;;;;;;;0.00;0.00;;;11.60;85.20;;;;;;5045142;28;20049;-71
2022/06/08 01:19:28;;;;;;;0.00;0.00;;;11.60;85.10;;;;;;5029881;28;20056;-71
2022/06/08 01:21:57;;;;;;;0.00;0.00;;;11.60;85.00;;;;;;5029917;28;20041;-71
2022/06/08 01:24:24;;;;;;;0.00;0.00;;;11.60;85.00;;;;;;5029755;28;20042;-71
2022/06/08 01:27:16;;;;;;;0.00;0.00;;;11.60;85.10;;;;;;5029916;28;20111;-70
2022/06/08 01:30:07;;;;;;;0.00;0.00;;;11.60;85.20;;;;;;5011235;28;20803;-71
2022/06/08 01:32:35;;;;;;;0.00;0.00;;;11.60;85.50;;;;;;5023939;28;20041;-71
2022/06/08 01:35:36;;;;;;;0.00;0.00;;;11.60;85.70;;;;;;5030410;28;20045;-70
2022/06/08 01:38:04;;;;;;;0.00;0.00;;;11.70;85.80;;;;;;5030153;28;20049;-71
2022/06/08 01:40:45;;;;;;;0.00;0.00;;;11.70;85.90;;;;;;5029587;28;20049;-71
2022/06/08 01:43:16;;;;;;;0.00;0.00;;;11.70;85.90;;;;;;5017589;28;20053;-71
2022/06/08 01:45:51;;;;;;;0.00;0.00;;;11.70;85.90;;;;;;5029918;28;20045;-71
2022/06/08 01:48:47;;;;;;;0.00;0.00;;;11.80;85.90;;;;;;5029637;28;20038;-71
2022/06/08 01:51:18;;;;;;;0.00;0.00;;;11.70;85.90;;;;;;5018259;28;20057;-71
2022/06/08 01:53:58;;;;;;;0.00;0.00;;;11.80;86.00;;;;;;5029021;28;20494;-71
2022/06/08 01:56:33;;;;;;;0.10;0.10;;;11.80;86.00;;;;;;5029789;28;20049;-71
2022/06/08 01:59:23;;;;;;;0.00;0.00;;;11.80;85.90;;;;;;5029168;28;20057;-71
2022/06/08 02:02:08;;;;;;;0.00;0.00;;;11.80;86.00;;;;;;5029000;28;20041;-71
2022/06/08 02:04:48;;;;;;;0.00;0.00;;;11.90;86.00;;;;;;5029495;28;20049;-71
2022/06/08 02:07:25;;;;;;;0.00;0.00;;;11.80;85.90;;;;;;5028689;28;20042;-71
2022/06/08 02:10:06;;;;;;;0.00;0.00;;;11.80;85.80;;;;;;5028955;28;20093;-71
2022/06/08 02:12:38;;;;;;;0.00;0.00;;;11.80;85.80;;;;;;5028694;28;20033;-71
2022/06/08 02:15:17;;;;;;;0.00;0.00;;;11.80;85.70;;;;;;5028476;28;20532;-71
2022/06/08 02:17:54;;;;;;;0.00;0.00;;;11.80;85.60;;;;;;5028749;28;20217;-70
2022/06/08 02:20:54;;;;;;;0.00;0.00;;;11.80;85.80;;;;;;5029066;28;20035;-70
2022/06/08 02:23:35;;;;;;;0.00;0.00;;;11.80;85.80;;;;;;4998877;28;20049;-70
2022/06/08 02:26:11;;;;;;;0.00;0.00;;;11.80;85.70;;;;;;5029363;28;20080;-70
2022/06/08 02:28:59;;;;;;;0.00;0.00;;;11.80;85.80;;;;;;5027334;28;20052;-70
2022/06/08 02:31:35;;;;;;;0.00;0.00;;;11.70;85.70;;;;;;5028138;28;20095;-69
2022/06/08 02:37:19;;;;;;;0.00;0.00;;;11.70;85.60;;;;;;5029006;28;20061;-70
2022/06/08 02:39:54;;;;;;;0.00;0.00;;;11.80;85.70;;;;;;5040996;28;20511;-70
2022/06/08 02:42:30;;;;;;;0.00;0.00;;;11.70;85.80;;;;;;5028702;28;20152;-71
2022/06/08 02:45:08;;;;;;;0.00;0.00;;;11.70;85.80;;;;;;5028634;28;20577;-71
2022/06/08 02:47:38;;;;;;;0.00;0.00;;;11.80;85.80;;;;;;5028571;28;20112;-71
2022/06/08 02:50:20;;;;;;;0.00;0.00;;;11.80;85.80;;;;;;5028039;28;20433;-71
2022/06/08 02:52:49;;;;;;;0.00;0.00;;;11.80;85.90;;;;;;5028117;28;20041;-71
2022/06/08 02:55:33;;;;;;;0.00;0.00;;;11.70;86.00;;;;;;5027939;28;20042;-72
2022/06/08 02:58:05;;;;;;;0.00;0.00;;;11.70;86.00;;;;;;5028041;28;20077;-71
2022/06/08 03:00:41;;;;;;;0.00;0.00;;;11.70;85.90;;;;;;5027900;28;20756;-71
2022/06/08 03:03:14;;;;;;;0.00;0.00;;;11.70;85.80;;;;;;5028162;28;20061;-70
2022/06/08 03:05:54;;;;;;;0.00;0.00;;;11.70;85.90;;;;;;5028697;28;20033;-70
2022/06/08 03:08:26;;;;;;;0.00;0.00;;;11.70;86.00;;;;;;5028155;28;20479;-70
2022/06/08 03:10:53;;;;;;;0.00;0.00;;;11.70;86.00;;;;;;5028311;28;21034;-71
2022/06/08 03:13:27;;;;;;;0.00;0.00;;;11.80;86.00;;;;;;5028542;28;20052;-70
2022/06/08 03:15:58;;;;;;;0.03;0.03;;;11.80;86.00;;;;;;5027681;28;20070;-70
2022/06/08 03:18:24;;;;;;;0.00;0.00;;;11.70;86.00;;;;;;5028312;28;20045;-71
2022/06/08 03:20:52;;;;;;;0.03;0.03;;;11.80;86.00;;;;;;5028012;28;20376;-70
2022/06/08 03:23:18;;;;;;;0.00;0.00;;;11.80;86.00;;;;;;5028245;28;20454;-71
2022/06/08 03:25:44;;;;;;;0.03;0.03;;;11.80;86.10;;;;;;5028385;28;20100;-70
2022/06/08 03:28:12;;;;;;;0.00;0.00;;;11.90;86.10;;;;;;5027192;28;20057;-70
2022/06/08 03:30:39;;;;;;;0.00;0.00;;;11.90;86.20;;;;;;5028388;28;20136;-70
2022/06/08 03:33:04;;;;;;;0.00;0.00;;;12.00;86.10;;;;;;5028433;28;20139;-71
2022/06/08 03:35:30;;;;;;;0.00;0.00;;;12.00;86.10;;;;;;5027966;28;20190;-70
2022/06/08 03:37:56;;;;;;;0.00;0.00;;;12.00;86.10;;;;;;5028085;28;20077;-71
2022/06/08 03:40:21;;;;;;;0.10;0.10;;;12.00;86.20;;;;;;5030500;28;20068;-70
2022/06/08 03:42:47;;;;;;;0.00;0.00;;;12.10;86.20;;;;;;5031872;28;20413;-70
2022/06/08 03:45:13;;;;;;;0.08;0.08;;;12.10;86.20;;;;;;5036778;28;20046;-71
2022/06/08 03:47:43;;;;;;;0.00;0.00;;;12.10;86.40;;;;;;5031642;28;20129;-71
2022/06/08 03:50:14;;;;;;;0.00;0.00;;;12.10;86.40;;;;;;5031066;28;20532;-70
2022/06/08 03:52:44;;;;;;;0.00;0.00;;;12.30;86.40;;;;;;5031913;28;20038;-70
2022/06/08 03:55:11;;;;;;;0.00;0.00;;;12.30;86.40;;;;;;5031206;28;20049;-70
2022/06/08 03:57:38;;;;;;;0.03;0.03;;;12.40;86.50;;;;;;5030769;28;20037;-70
2022/06/08 04:00:05;;;;;;;0.10;0.10;;;12.40;86.60;;;;;;5031185;28;20083;-70
2022/06/08 04:02:32;;;;;;;0.00;0.00;;;12.40;86.60;;;;;;5031113;28;20037;-71
2022/06/08 04:04:57;;;;;;;0.00;0.00;;;12.50;86.90;;;;;;5031440;28;20034;-70
2022/06/08 04:07:23;;;;;;;0.03;0.03;;;12.60;87.00;;;;;;5031248;28;20087;-70
2022/06/08 04:09:49;;;;;;;0.00;0.00;;;12.60;87.10;;;;;;5031276;28;20041;-71
2022/06/08 04:12:16;;;;;;;0.00;0.00;;;12.70;87.40;;;;;;5030547;28;20418;-70
2022/06/08 04:14:42;;;;;;;0.00;0.00;;;12.80;87.50;;;;;;5030779;28;20046;-71
2022/06/08 04:17:08;;;;;;;0.00;0.00;;;12.90;87.60;;;;;;5032143;28;20033;-71
2022/06/08 04:19:33;;;;;;;0.10;0.10;;;12.90;87.50;;;;;;5041105;28;20120;-71
2022/06/08 04:21:59;;;;;;;0.00;0.00;;;13.00;87.90;;;;;;5030593;28;20487;-71
2022/06/08 04:24:25;;;;;;;0.00;0.00;;;13.10;87.90;;;;;;5030174;28;20117;-71
2022/06/08 04:26:52;;;;;;;0.00;0.00;;;13.10;87.90;;;;;;5030479;28;20492;-71
2022/06/08 04:29:18;;;;;;;0.32;0.32;;;13.10;88.10;;;;;;5030226;28;20037;-70
2022/06/08 04:31:45;;;;;;;0.00;0.00;;;13.20;88.40;;;;;;5031372;28;20077;-70
2022/06/08 04:34:11;;;;;;;0.00;0.00;;;13.10;88.40;;;;;;5030899;28;20069;-71
2022/06/08 04:36:38;;;;;;;0.00;0.00;;;13.20;88.40;;;;;;5029861;28;20080;-71
2022/06/08 04:39:06;;;;;;;0.10;0.10;;;13.30;88.60;;;;;;5030620;28;20072;-71
2022/06/08 04:41:34;;;;;;;0.00;0.00;;;13.30;88.70;;;;;;5030472;28;20037;-71
2022/06/08 04:44:00;;;;;;;0.00;0.00;;;13.40;88.80;;;;;;5029882;28;20055;-71
2022/06/08 04:46:25;;;;;;;0.00;0.00;;;13.40;89.20;;;;;;5029866;28;20053;-70
2022/06/08 04:48:51;;;;;;;0.10;0.10;;;13.50;89.30;;;;;;5030103;28;20037;-70
2022/06/08 04:51:17;;;;;;;0.00;0.00;;;13.50;89.10;;;;;;5029303;28;20038;-70
2022/06/08 04:53:44;;;;;;;0.00;0.00;;;13.60;89.10;;;;;;5030605;28;20519;-70
2022/06/08 04:56:10;;;;;;;0.25;0.25;;;13.60;89.20;;;;;;5030133;28;20445;-70
2022/06/08 04:58:35;;;;;;;0.00;0.00;;;13.60;89.50;;;;;;5045109;28;20037;-70
2022/06/08 05:01:02;;;;;;;0.00;0.00;;;13.60;89.40;;;;;;5030332;28;20466;-70
2022/06/08 05:03:30;;;;;;;0.00;0.00;;;13.60;89.40;;;;;;5030758;28;20188;-70
2022/06/08 05:05:57;;;;;;;0.00;0.00;;;13.70;89.40;;;;;;5030541;28;20512;-70
2022/06/08 05:08:23;;;;;;;0.00;0.00;;;13.70;89.40;;;;;;5030201;28;20087;-73
2022/06/08 05:10:50;;;;;;;0.00;0.00;;;13.70;89.50;;;;;;5028045;28;20136;-70
2022/06/08 05:13:16;;;;;;;0.00;0.00;;;13.70;89.50;;;;;;5030522;28;20581;-70
2022/06/08 05:15:43;;;;;;;0.20;0.20;;;13.70;89.40;;;;;;5030086;28;20041;-70
2022/06/08 05:18:10;;;;;;;0.00;0.00;;;13.80;89.50;;;;;;5030341;28;20108;-70
2022/06/08 05:20:38;;;;;;;0.00;0.00;;;13.80;89.50;;;;;;5029571;28;20111;-69
2022/06/08 05:23:07;;;;;;;0.10;0.10;;;13.90;89.70;;;;;;5030395;28;20045;-70
2022/06/08 05:25:36;;;;;;;0.00;0.00;;;13.90;89.70;;;;;;5029448;28;20037;-70
2022/06/08 05:28:03;;;;;;;0.88;0.85;;;14.00;89.70;;;;;;5029607;28;20475;-70
2022/06/08 05:30:30;;;;;;;0.00;0.00;;;14.10;89.60;;;;;;5029405;28;20041;-70
2022/06/08 05:32:56;;;;;;;0.00;0.00;;;14.10;89.60;;;;;;5029761;28;20045;-70
2022/06/08 05:35:23;;;;;;;0.05;0.05;;;14.20;89.70;;;;;;5029565;28;20048;-70
2022/06/08 05:37:49;;;;;;;0.00;0.00;;;14.30;89.70;;;;;;5028924;28;20118;-69
2022/06/08 05:40:14;;;;;;;0.00;0.00;;;14.40;89.70;;;;;;5029422;28;20494;-70
2022/06/08 05:42:41;;;;;;;0.00;0.00;;;14.50;89.70;;;;;;5029234;28;20045;-70
2022/06/08 05:45:08;;;;;;;0.00;0.00;;;14.50;89.70;;;;;;5029215;28;20091;-70
2022/06/08 05:47:34;;;;;;;0.00;0.00;;;14.50;89.50;;;;;;5029208;28;20053;-70
2022/06/08 05:50:00;;;;;;;0.00;0.00;;;14.60;89.60;;;;;;5029046;28;20107;-70
2022/06/08 05:52:26;;;;;;;0.00;0.00;;;14.70;89.60;;;;;;5028807;28;20049;-70
2022/06/08 05:54:52;;;;;;;0.00;0.00;;;14.70;89.50;;;;;;5028822;28;20041;-70
2022/06/08 05:57:17;;;;;;;0.20;0.20;;;14.80;89.30;;;;;;5028205;28;20037;-70
2022/06/08 05:59:43;;;;;;;0.00;0.00;;;14.80;89.30;;;;;;5027291;28;20520;-70
2022/06/08 06:02:13;;;;;;;0.00;0.00;;;14.80;89.50;;;;;;5026223;28;20136;-70
2022/06/08 06:04:39;;;;;;;0.00;0.00;;;14.90;89.30;;;;;;5029958;28;20038;-70
2022/06/08 06:07:05;;;;;;;0.00;0.00;;;14.90;89.30;;;;;;5029369;28;20056;-70
2022/06/08 06:09:32;;;;;;;0.10;0.10;;;14.90;89.40;;;;;;5030259;28;20037;-70
2022/06/08 06:11:58;;;;;;;0.00;0.00;;;14.90;89.30;;;;;;5021942;28;20053;-70
2022/06/08 06:14:27;;;;;;;0.00;0.00;;;15.00;89.10;;;;;;5029026;28;20053;-70
2022/06/08 06:16:52;;;;;;;0.22;0.22;;;15.00;89.20;;;;;;5029229;28;20387;-70
2022/06/08 06:19:18;;;;;;;0.00;0.00;;;15.00;89.20;;;;;;5028949;28;20195;-70
2022/06/08 06:21:43;;;;;;;0.40;0.40;;;15.10;89.20;;;;;;5029358;28;20508;-71
2022/06/08 06:24:09;;;;;;;0.00;0.00;;;15.20;89.10;;;;;;5039258;28;20057;-71
2022/06/08 06:26:35;;;;;;;0.00;0.00;;;15.20;89.00;;;;;;5025990;28;20049;-71
2022/06/08 06:29:00;;;;;;;0.00;0.00;;;15.20;89.10;;;;;;5029092;28;20491;-71
2022/06/08 06:31:37;;;;;;;0.00;0.00;;;15.30;89.20;;;;;;5018224;28;20057;-70
2022/06/08 06:34:03;;;;;;;0.00;0.00;;;15.30;89.20;;;;;;5012726;28;20711;-68
2022/06/08 06:36:28;;;;;;;0.00;0.00;;;15.40;89.30;;;;;;5021578;28;20072;-67
2022/06/08 06:38:54;;;;;;;0.00;0.00;;;15.50;89.00;;;;;;5028254;28;20208;-70
2022/06/08 06:41:20;;;;;;;0.00;0.00;;;15.60;89.00;;;;;;5021968;28;20048;-69
2022/06/08 06:43:46;;;;;;;0.00;0.00;;;15.60;88.80;;;;;;5020126;28;20046;-69
2022/06/08 06:46:13;;;;;;;0.00;0.00;;;15.60;88.80;;;;;;5025970;28;20103;-69
2022/06/08 06:48:39;;;;;;;0.00;0.00;;;15.70;88.60;;;;;;5025918;28;20049;-69
2022/06/08 06:51:06;;;;;;;0.10;0.10;;;15.70;88.60;;;;;;5009475;28;20053;-69
2022/06/08 06:53:32;;;;;;;0.20;0.20;;;15.70;88.40;;;;;;5025072;28;20065;-69
2022/06/08 06:55:58;;;;;;;0.00;0.00;;;15.70;88.30;;;;;;5027929;28;20518;-68
2022/06/08 06:58:23;;;;;;;0.00;0.00;;;15.90;88.30;;;;;;5030853;28;20780;-68
2022/06/08 07:00:49;;;;;;;0.00;0.00;;;15.90;88.20;;;;;;5027638;28;20121;-67
2022/06/08 07:03:16;;;;;;;0.00;0.00;;;16.00;88.00;;;;;;5026851;28;20111;-69
2022/06/08 07:05:42;;;;;;;0.00;0.00;;;16.00;87.80;;;;;;5027670;28;20053;-68
2022/06/08 07:08:08;;;;;;;0.10;0.10;;;16.00;87.80;;;;;;5028776;28;20055;-69
2022/06/08 07:10:36;;;;;;;0.00;0.00;;;16.10;87.80;;;;;;5027039;28;20136;-69
2022/06/08 07:13:03;;;;;;;0.20;0.20;;;16.20;87.60;;;;;;5028430;28;20058;-68
2022/06/08 07:15:29;;;;;;;0.00;0.00;;;16.20;87.60;;;;;;5029357;28;20053;-67
2022/06/08 07:17:54;;;;;;;0.08;0.08;;;16.30;87.40;;;;;;5025812;28;20430;-65
2022/06/08 07:20:21;;;;;;;0.10;0.10;;;16.40;87.40;;;;;;5019712;28;20060;-68
2022/06/08 07:22:49;;;;;;;0.00;0.00;;;16.40;87.30;;;;;;5029264;28;20068;-68
2022/06/08 07:25:16;;;;;;;0.10;0.10;;;16.50;87.10;;;;;;5031302;28;20041;-68
2022/06/08 07:27:42;;;;;;;0.00;0.00;;;16.50;86.90;;;;;;5031081;28;20040;-69
2022/06/08 07:30:09;;;;;;;0.10;0.10;;;16.50;86.80;;;;;;5043181;28;20052;-66
2022/06/08 07:32:35;;;;;;;0.00;0.00;;;16.60;86.60;;;;;;5031795;28;20049;-69
2022/06/08 07:35:02;;;;;;;0.00;0.00;;;16.60;86.40;;;;;;5030433;28;20048;-67
2022/06/08 07:37:28;;;;;;;0.00;0.00;;;16.60;86.30;;;;;;5031186;28;20057;-68
2022/06/08 07:39:54;;;;;;;0.10;0.10;;;16.70;86.00;;;;;;5030727;28;20041;-66
2022/06/08 07:42:21;;;;;;;0.00;0.00;;;16.70;85.70;;;;;;5016762;28;20430;-67
2022/06/08 07:44:47;;;;;;;0.00;0.00;;;16.80;85.50;;;;;;5022779;28;20498;-65
2022/06/08 07:47:14;;;;;;;0.00;0.00;;;16.90;85.50;;;;;;5027194;28;20045;-64
2022/06/08 07:49:41;;;;;;;0.00;0.00;;;17.00;85.50;;;;;;5018188;28;20053;-64
2022/06/08 07:52:16;;;;;;;0.00;0.00;;;17.10;85.50;;;;;;5021919;28;20045;-64
2022/06/08 07:54:43;;;;;;;0.00;0.00;;;17.10;85.40;;;;;;5013151;28;21083;-64
2022/06/08 07:57:15;;;;;;;0.00;0.00;;;17.20;84.90;;;;;;5013626;28;20414;-65
2022/06/08 07:59:41;;;;;;;0.10;0.10;;;17.20;84.70;;;;;;5026889;28;20558;-64
2022/06/08 08:02:07;;;;;;;0.10;0.10;;;17.30;84.50;;;;;;5015386;28;20047;-64
2022/06/08 08:04:34;;;;;;;0.00;0.00;;;17.30;84.20;;;;;;5020647;28;20084;-63
2022/06/08 08:07:00;;;;;;;0.00;0.00;;;17.40;84.00;;;;;;5014237;28;20052;-69
2022/06/08 08:09:26;;;;;;;0.00;0.00;;;17.40;83.60;;;;;;5024916;28;20041;-69
2022/06/08 08:11:54;;;;;;;0.30;0.30;;;17.40;83.80;;;;;;4992498;28;20153;-69
2022/06/08 08:14:22;;;;;;;0.00;0.00;;;17.50;83.80;;;;;;4995537;28;20521;-68
2022/06/08 08:16:48;;;;;;;0.00;0.00;;;17.50;83.40;;;;;;5001805;28;20056;-69
2022/06/08 08:19:17;;;;;;;0.10;0.10;;;17.50;83.50;;;;;;5011364;28;20852;-69
2022/06/08 08:21:44;;;;;;;0.00;0.00;;;17.60;83.30;;;;;;5009756;28;20068;-69
2022/06/08 08:24:09;;;;;;;0.00;0.00;;;17.60;83.00;;;;;;5009586;28;20042;-69
2022/06/08 08:26:36;;;;;;;0.20;0.20;;;17.50;82.20;;;;;;5009360;28;20053;-68
2022/06/08 08:29:03;;;;;;;0.00;0.00;;;17.60;82.70;;;;;;5010243;28;20068;-67
2022/06/08 08:31:29;;;;;;;0.00;0.00;;;17.60;82.60;;;;;;5010349;28;20561;-69
2022/06/08 08:33:55;;;;;;;0.10;0.10;;;17.60;81.90;;;;;;5010229;28;20042;-69
2022/06/08 08:36:20;;;;;;;0.10;0.10;;;17.80;82.20;;;;;;5010629;28;20077;-68
2022/06/08 08:38:46;;;;;;;0.00;0.00;;;17.80;81.80;;;;;;5006268;28;20045;-68
2022/06/08 08:44:38;;;;;;;0.00;0.00;;;18.10;81.70;;;;;;5001706;28;20054;-68
2022/06/08 08:47:23;;;;;;;0.00;0.00;;;18.10;80.40;;;;;;5001198;28;20053;-68
2022/06/08 08:50:01;;;;;;;0.00;0.00;;;18.30;80.50;;;;;;4994080;28;20128;-69
2022/06/08 08:52:47;;;;;;;0.00;0.00;;;18.40;80.70;;;;;;4994890;28;20063;-70
2022/06/08 08:55:19;;;;;;;0.43;0.43;;;18.50;80.10;;;;;;4997992;28;20061;-68
2022/06/08 08:57:56;;;;;;;0.00;0.00;;;18.50;80.00;;;;;;4992973;28;20054;-68
2022/06/08 09:00:41;;;;;;;0.00;0.00;;;18.60;80.20;;;;;;5002135;28;20119;-69
2022/06/08 09:03:23;;;;;;;0.00;0.00;;;18.70;80.20;;;;;;4997728;28;20050;-68
2022/06/08 09:05:51;;;;;;;0.00;0.00;;;18.80;80.50;;;;;;4998081;28;20058;-69
2022/06/08 09:08:19;;;;;;;0.03;0.03;;;18.90;80.10;;;;;;4993503;28;20038;-68
2022/06/08 09:10:45;;;;;;;0.00;0.00;;;18.90;79.00;;;;;;5011499;28;20107;-69
2022/06/08 09:13:17;;;;;;;0.00;0.00;;;19.00;78.30;;;;;;5011010;28;20054;-69
2022/06/08 09:15:54;;;;;;;0.35;0.35;;;19.00;78.10;;;;;;5018805;28;20060;-68
2022/06/08 09:18:30;;;;;;;0.52;0.52;;;19.10;77.90;;;;;;5029720;28;20057;-68
2022/06/08 09:20:57;;;;;;;0.00;0.00;;;19.20;77.40;;;;;;5029849;28;20046;-68
2022/06/08 09:23:26;;;;;;;0.00;0.00;;;19.40;77.80;;;;;;5027924;28;20056;-69
2022/06/08 09:26:15;;;;;;;0.00;0.00;;;19.50;77.70;;;;;;5028892;28;20211;-68
2022/06/08 09:28:42;;;;;;;0.00;0.00;;;19.50;77.50;;;;;;5028792;28;20069;-68
2022/06/08 09:31:29;;;;;;;0.00;0.00;;;19.50;77.50;;;;;;5028237;28;20037;-68
2022/06/08 09:34:14;;;;;;;0.00;0.00;;;19.50;77.10;;;;;;5029164;28;20038;-68
2022/06/08 09:36:40;;;;;;;0.00;0.00;;;19.60;77.10;;;;;;5028076;28;20041;-67
2022/06/08 09:39:05;;;;;;;0.10;0.10;;;19.60;76.30;;;;;;5029570;28;20411;-68
2022/06/08 09:41:39;;;;;;;0.00;0.00;;;19.70;75.80;;;;;;5030111;28;20056;-68
2022/06/08 09:44:17;;;;;;;0.00;0.00;;;19.80;76.10;;;;;;5025277;28;20041;-70
2022/06/08 09:53:20;;;;;;;0.00;0.00;;;19.80;76.30;;;;;;5021209;28;20052;-70
2022/06/08 09:56:05;;;;;;;0.00;0.00;;;19.70;75.70;;;;;;5022114;28;20041;-70
2022/06/08 09:59:00;;;;;;;0.00;0.00;;;19.60;75.20;;;;;;5029497;28;20079;-71
2022/06/08 10:01:37;;;;;;;0.00;0.00;;;19.50;74.90;;;;;;5028938;28;20152;-70
2022/06/08 10:04:27;;;;;;;0.00;0.00;;;19.50;75.40;;;;;;5028356;28;20049;-70
2022/06/08 10:07:03;;;;;;;0.00;0.00;;;19.50;75.60;;;;;;5029311;28;20076;-69
2022/06/08 10:09:47;;;;;;;0.00;0.00;;;19.40;75.60;;;;;;5029068;28;20048;-69
2022/06/08 10:12:45;;;;;;;0.00;0.00;;;19.40;76.00;;;;;;5022947;28;20061;-69
2022/06/08 10:15:43;;;;;;;0.00;0.00;;;19.30;76.10;;;;;;5027576;28;20081;-69
2022/06/08 10:18:29;;;;;;;0.00;0.00;;;19.20;76.40;;;;;;5009501;28;20056;-69
2022/06/08 10:21:00;;;;;;;0.05;0.05;;;19.10;77.70;;;;;;5025391;28;20081;-69
2022/06/08 10:23:41;;;;;;;0.00;0.00;;;19.00;79.20;;;;;;5043406;28;20080;-70
2022/06/08 10:26:39;;;;;;;0.00;0.00;;;19.00;80.20;;;;;;5028681;28;20064;-70
2022/06/08 10:29:25;;;;;;;0.00;0.00;;;18.90;81.10;;;;;;5014048;28;20064;-70
2022/06/08 10:32:00;;;;;;;0.00;0.00;;;18.90;82.50;;;;;;5014993;28;20084;-69
2022/06/08 10:34:33;;;;;;;0.00;0.00;;;18.90;82.70;;;;;;5028414;28;20120;-70
2022/06/08 10:37:16;;;;;;;0.00;0.00;;;18.90;82.90;;;;;;5028971;28;20045;-69
2022/06/08 10:39:43;;;;;;;0.00;0.00;;;18.80;83.30;;;;;;5017949;28;20069;-70
2022/06/08 10:44:58;;;;;;;0.00;0.00;;;18.90;83.50;;;;;;5029426;28;20045;-69
2022/06/08 10:47:39;;;;;;;0.00;0.00;;;19.00;83.50;;;;;;5026815;28;20088;-69
2022/06/08 10:50:04;;;;;;;0.00;0.00;;;19.10;83.70;;;;;;5027902;28;20465;-68
2022/06/08 10:52:43;;;;;;;0.00;0.00;;;19.10;83.60;;;;;;5023378;28;20085;-68
2022/06/08 10:55:15;;;;;;;0.00;0.00;;;19.10;83.50;;;;;;5027663;28;20076;-69
2022/06/08 10:57:43;;;;;;;0.00;0.00;;;19.20;83.60;;;;;;5022821;28;20084;-68
2022/06/08 11:00:24;;;;;;;0.00;0.00;;;19.20;83.50;;;;;;5028308;28;20542;-69
2022/06/08 11:02:54;;;;;;;0.00;0.00;;;19.30;83.70;;;;;;5026262;28;20111;-69
2022/06/08 11:05:32;;;;;;;0.20;0.20;;;19.40;83.40;;;;;;5027750;28;20136;-69
2022/06/08 11:08:06;;;;;;;0.00;0.00;;;19.50;84.10;;;;;;5027695;28;20449;-67
2022/06/08 11:10:44;;;;;;;0.00;0.00;;;19.60;83.90;;;;;;5027175;28;20061;-67
2022/06/08 11:13:22;;;;;;;0.00;0.00;;;19.80;83.60;;;;;;5027851;28;20052;-66
2022/06/08 11:16:07;;;;;;;0.00;0.00;;;19.80;83.20;;;;;;5027085;28;20041;-69
2022/06/08 11:18:49;;;;;;;0.00;0.00;;;19.90;83.00;;;;;;5028537;28;20073;-69
2022/06/08 11:21:14;;;;;;;0.00;0.00;;;20.00;82.90;;;;;;5027154;28;20132;-69
2022/06/08 11:23:51;;;;;;;0.00;0.00;;;20.10;82.70;;;;;;5028460;28;20132;-69
2022/06/08 11:26:21;;;;;;;0.00;0.00;;;20.10;82.40;;;;;;5027677;28;20492;-69
2022/06/08 11:28:50;;;;;;;0.00;0.00;;;20.10;81.80;;;;;;5030704;28;20456;-67
2022/06/08 11:31:25;;;;;;;0.00;0.00;;;20.10;81.60;;;;;;5027293;28;20045;-68
2022/06/08 11:34:09;;;;;;;0.00;0.00;;;20.10;81.20;;;;;;5038756;28;20048;-68
2022/06/08 11:36:47;;;;;;;0.00;0.00;;;20.10;80.70;;;;;;5026580;28;20100;-69
2022/06/08 11:39:29;;;;;;;0.00;0.00;;;20.00;80.90;;;;;;5011093;28;20494;-67
2022/06/08 11:42:15;;;;;;;0.00;0.00;;;19.90;81.50;;;;;;5027773;28;20119;-68
2022/06/08 11:44:55;;;;;;;0.00;0.00;;;19.80;81.80;;;;;;5027756;28;20061;-68
2022/06/08 11:47:26;;;;;;;0.00;0.00;;;19.60;82.10;;;;;;5028085;28;20045;-68
2022/06/08 11:50:16;;;;;;;0.00;0.00;;;19.60;82.60;;;;;;5027393;28;20053;-67
2022/06/08 11:52:46;;;;;;;0.00;0.00;;;19.50;82.70;;;;;;5015395;28;20046;-67
2022/06/08 11:55:13;;;;;;;0.00;0.00;;;19.30;82.80;;;;;;5028168;28;20099;-67
2022/06/08 11:57:59;;;;;;;0.00;0.00;;;19.20;83.00;;;;;;5027772;28;20049;-67
2022/06/08 12:00:31;;;;;;;0.00;0.00;;;19.10;83.10;;;;;;5028079;28;20053;-68
2022/06/08 12:02:59;;;;;;;;;;;19.10;83.10;;;;;;5030292;28;20041;-68
2022/06/08 12:05:31;;;;;;;0.00;0.00;;;19.10;83.20;;;;;;5029130;28;19925;-70
2022/06/08 12:08:08;;;;;;;0.00;0.00;;;19.10;83.30;;;;;;5029617;28;20047;-67
2022/06/08 12:10:35;;;;;;;0.00;0.00;;;19.10;83.50;;;;;;5030142;28;20053;-67
2022/06/08 12:13:02;;;;;;;0.75;0.75;;;19.00;83.00;;;;;;5030604;28;20053;-68
2022/06/08 12:15:32;;;;;;;0.00;0.00;;;19.00;82.80;;;;;;5030129;28;20044;-68
2022/06/08 12:18:19;;;;;;;0.00;0.00;;;18.90;82.20;;;;;;5030163;28;20395;-68
2022/06/08 12:20:45;;;;;;;0.10;0.10;;;18.80;82.20;;;;;;5029312;28;20041;-68
2022/06/08 12:23:10;;;;;;;0.20;0.20;;;18.80;82.20;;;;;;5028077;28;20707;-68
2022/06/08 12:25:36;;;;;;;0.10;0.10;;;18.80;82.30;;;;;;5028787;28;20463;-68
2022/06/08 12:28:09;;;;;;;0.75;0.52;;;18.80;82.50;;;;;;5029398;28;20087;-68
2022/06/08 12:30:53;;;;;;;0.28;0.28;;;18.70;82.40;;;;;;5026424;28;20184;-68
2022/06/08 12:33:18;;;;;;;0.00;0.00;;;18.70;82.40;;;;;;5024806;28;20056;-69
2022/06/08 12:36:10;;;;;;;0.00;0.00;;;18.60;82.30;;;;;;5027534;28;20034;-68
2022/06/08 12:38:39;;;;;;;0.13;0.13;;;18.60;81.80;;;;;;5028396;28;20411;-69
2022/06/08 12:41:15;;;;;;;0.10;0.10;;;18.50;81.10;;;;;;5030102;28;20110;-69
2022/06/08 12:43:45;;;;;;;0.00;0.00;;;18.40;81.20;;;;;;5028963;28;20046;-69
2022/06/08 12:46:17;;;;;;;0.00;0.00;;;18.30;81.70;;;;;;5028687;28;20083;-69
2022/06/08 12:48:47;;;;;;;0.00;0.00;;;18.20;81.90;;;;;;5045868;28;20053;-70
2022/06/08 12:51:32;;;;;;;0.00;0.00;;;18.00;82.50;;;;;;5030662;28;20446;-70
2022/06/08 12:54:01;;;;;;;0.00;0.00;;;17.80;82.80;;;;;;5027629;28;20628;-70
2022/06/08 12:56:28;;;;;;;0.35;0.35;;;17.60;83.40;;;;;;5030096;28;20045;-70
2022/06/08 12:58:55;;;;;;;0.00;0.00;;;17.30;83.30;;;;;;5030447;28;20037;-70
2022/06/08 13:01:22;;;;;;;0.03;0.03;;;17.20;83.50;;;;;;5030323;28;20053;-70
2022/06/08 13:03:49;;;;;;;0.00;0.00;;;17.10;84.20;;;;;;5030182;28;20072;-70
2022/06/08 13:06:15;;;;;;;0.00;0.00;;;17.00;84.30;;;;;;5030337;28;20050;-69
2022/06/08 13:08:41;;;;;;;0.00;0.00;;;17.00;85.20;;;;;;5030190;28;20041;-69
2022/06/08 13:11:13;;;;;;;0.00;0.00;;;16.90;85.40;;;;;;5028655;28;20045;-69
2022/06/08 13:13:40;;;;;;;0.00;0.00;;;16.80;85.30;;;;;;5029118;28;20057;-69
2022/06/08 13:16:21;;;;;;;0.10;0.10;;;16.70;85.70;;;;;;5030257;28;20566;-71
2022/06/08 13:18:48;;;;;;;2.10;0.73;;;16.70;85.90;;;;;;5030097;28;20132;-71
2022/06/08 13:21:14;;;;;;;0.10;0.10;;;16.70;86.10;;;;;;5029243;28;20406;-70
2022/06/08 13:23:41;;;;;;;0.10;0.10;;;16.80;86.10;;;;;;5030412;28;20041;-70